sensor_id;sensor_type;location;lat;lon;timestamp;P1;durP1;ratioP1;P2;durP2;ratioP2
37151;SDS011;23046;50.112;8.952;2024-02-26T00:00:02;0.85;;;0.70;;
37151;SDS011;23046;50.112;8.952;2024-02-26T00:00:15;1.08;;;0.73;;
37151;SDS011;23046;50.112;8.952;2024-02-26T00:00:25;0.75;;;0.70;;
37151;SDS011;23046;50.112;8.952;2024-02-26T00:00:35;0.60;;;0.60;;
37151;SDS011;23046;50.112;8.952;2024-02-26T00:00:46;0.50;;;0.50;;
37151;SDS011;23046;50.112;8.952;2024-02-26T00:00:56;0.50;;;0.50;;
37151;SDS011;23046;50.112;8.952;2024-02-26T00:01:06;0.53;;;0.53;;
37151;SDS011;23046;50.112;8.952;2024-02-26T00:01:17;0.63;;;0.63;;
37151;SDS011;23046;50.112;8.952;2024-02-26T00:01:27;0.60;;;0.60;;
37151;SDS011;23046;50.112;8.952;2024-02-26T00:01:37;0.93;;;0.70;;
37151;SDS011;23046;50.112;8.952;2024-02-26T00:01:48;0.97;;;0.70;;
37151;SDS011;23046;50.112;8.952;2024-02-26T00:01:58;0.90;;;0.70;;
37151;SDS011;23046;50.112;8.952;2024-02-26T00:02:08;0.60;;;0.60;;
37151;SDS011;23046;50.112;8.952;2024-02-26T00:02:19;0.70;;;0.70;;
37151;SDS011;23046;50.112;8.952;2024-02-26T00:02:29;0.75;;;0.75;;
37151;SDS011;23046;50.112;8.952;2024-02-26T00:02:39;0.87;;;0.83;;
37151;SDS011;23046;50.112;8.952;2024-02-26T00:02:50;0.70;;;0.70;;
37151;SDS011;23046;50.112;8.952;2024-02-26T00:03:00;0.63;;;0.63;;
37151;SDS011;23046;50.112;8.952;2024-02-26T00:03:10;0.73;;;0.60;;
37151;SDS011;23046;50.112;8.952;2024-02-26T00:03:20;0.77;;;0.60;;
37151;SDS011;23046;50.112;8.952;2024-02-26T00:03:31;0.93;;;0.70;;
37151;SDS011;23046;50.112;8.952;2024-02-26T00:03:42;0.70;;;0.70;;
37151;SDS011;23046;50.112;8.952;2024-02-26T00:03:54;0.85;;;0.80;;
37151;SDS011;23046;50.112;8.952;2024-02-26T00:04:09;1.00;;;0.80;;
37151;SDS011;23046;50.112;8.952;2024-02-26T00:04:19;1.00;;;0.80;;
37151;SDS011;23046;50.112;8.952;2024-02-26T00:04:31;1.08;;;0.80;;
37151;SDS011;23046;50.112;8.952;2024-02-26T00:04:41;0.80;;;0.80;;
37151;SDS011;23046;50.112;8.952;2024-02-26T00:04:52;0.80;;;0.80;;
37151;SDS011;23046;50.112;8.952;2024-02-26T00:05:02;0.70;;;0.70;;
37151;SDS011;23046;50.112;8.952;2024-02-26T00:05:12;0.60;;;0.60;;
37151;SDS011;23046;50.112;8.952;2024-02-26T00:05:22;0.67;;;0.67;;
37151;SDS011;23046;50.112;8.952;2024-02-26T00:05:33;0.60;;;0.60;;
37151;SDS011;23046;50.112;8.952;2024-02-26T00:05:43;0.70;;;0.70;;
37151;SDS011;23046;50.112;8.952;2024-02-26T00:05:53;0.60;;;0.60;;
37151;SDS011;23046;50.112;8.952;2024-02-26T00:06:03;0.60;;;0.60;;
37151;SDS011;23046;50.112;8.952;2024-02-26T00:06:13;0.60;;;0.60;;
37151;SDS011;23046;50.112;8.952;2024-02-26T00:06:24;0.60;;;0.60;;
37151;SDS011;23046;50.112;8.952;2024-02-26T00:06:34;0.60;;;0.60;;
37151;SDS011;23046;50.112;8.952;2024-02-26T00:06:44;0.60;;;0.60;;
37151;SDS011;23046;50.112;8.952;2024-02-26T00:06:55;0.70;;;0.70;;
37151;SDS011;23046;50.112;8.952;2024-02-26T00:07:05;0.70;;;0.70;;
37151;SDS011;23046;50.112;8.952;2024-02-26T00:07:16;0.80;;;0.80;;
37151;SDS011;23046;50.112;8.952;2024-02-26T00:07:26;0.83;;;0.83;;
37151;SDS011;23046;50.112;8.952;2024-02-26T00:07:37;1.07;;;0.97;;
37151;SDS011;23046;50.112;8.952;2024-02-26T00:07:47;1.00;;;0.90;;
37151;SDS011;23046;50.112;8.952;2024-02-26T00:07:58;0.80;;;0.80;;
37151;SDS011;23046;50.112;8.952;2024-02-26T00:08:09;0.70;;;0.70;;
37151;SDS011;23046;50.112;8.952;2024-02-26T00:08:19;0.90;;;0.70;;
37151;SDS011;23046;50.112;8.952;2024-02-26T00:08:29;0.90;;;0.60;;
37151;SDS011;23046;50.112;8.952;2024-02-26T00:08:39;0.82;;;0.60;;
37151;SDS011;23046;50.112;8.952;2024-02-26T00:08:49;0.63;;;0.63;;
37151;SDS011;23046;50.112;8.952;2024-02-26T00:09:00;0.70;;;0.70;;
37151;SDS011;23046;50.112;8.952;2024-02-26T00:09:10;0.70;;;0.70;;
37151;SDS011;23046;50.112;8.952;2024-02-26T00:09:20;0.63;;;0.63;;
37151;SDS011;23046;50.112;8.952;2024-02-26T00:09:31;0.70;;;0.70;;
37151;SDS011;23046;50.112;8.952;2024-02-26T00:09:41;0.70;;;0.70;;
37151;SDS011;23046;50.112;8.952;2024-02-26T00:09:52;0.70;;;0.70;;
37151;SDS011;23046;50.112;8.952;2024-02-26T00:10:02;0.77;;;0.67;;
37151;SDS011;23046;50.112;8.952;2024-02-26T00:10:15;0.90;;;0.70;;
37151;SDS011;23046;50.112;8.952;2024-02-26T00:10:25;0.82;;;0.77;;
37151;SDS011;23046;50.112;8.952;2024-02-26T00:10:35;0.63;;;0.63;;
37151;SDS011;23046;50.112;8.952;2024-02-26T00:10:45;0.60;;;0.60;;
37151;SDS011;23046;50.112;8.952;2024-02-26T00:10:55;0.60;;;0.60;;
37151;SDS011;23046;50.112;8.952;2024-02-26T00:11:06;0.60;;;0.60;;
37151;SDS011;23046;50.112;8.952;2024-02-26T00:11:16;0.77;;;0.60;;
37151;SDS011;23046;50.112;8.952;2024-02-26T00:11:26;0.70;;;0.60;;
37151;SDS011;23046;50.112;8.952;2024-02-26T00:11:36;0.82;;;0.68;;
37151;SDS011;23046;50.112;8.952;2024-02-26T00:11:47;0.70;;;0.70;;
37151;SDS011;23046;50.112;8.952;2024-02-26T00:11:57;0.85;;;0.70;;
37151;SDS011;23046;50.112;8.952;2024-02-26T00:12:09;0.70;;;0.70;;
37151;SDS011;23046;50.112;8.952;2024-02-26T00:12:19;0.80;;;0.70;;
37151;SDS011;23046;50.112;8.952;2024-02-26T00:12:29;0.80;;;0.70;;
37151;SDS011;23046;50.112;8.952;2024-02-26T00:12:40;0.75;;;0.60;;
37151;SDS011;23046;50.112;8.952;2024-02-26T00:12:50;0.70;;;0.70;;
37151;SDS011;23046;50.112;8.952;2024-02-26T00:13:00;1.10;;;0.80;;
37151;SDS011;23046;50.112;8.952;2024-02-26T00:13:10;1.10;;;0.80;;
37151;SDS011;23046;50.112;8.952;2024-02-26T00:13:20;1.20;;;0.70;;
37151;SDS011;23046;50.112;8.952;2024-02-26T00:13:32;1.00;;;0.75;;
37151;SDS011;23046;50.112;8.952;2024-02-26T00:13:42;1.03;;;0.80;;
37151;SDS011;23046;50.112;8.952;2024-02-26T00:13:52;0.80;;;0.80;;
37151;SDS011;23046;50.112;8.952;2024-02-26T00:14:02;1.00;;;0.80;;
37151;SDS011;23046;50.112;8.952;2024-02-26T00:14:13;1.00;;;0.73;;
37151;SDS011;23046;50.112;8.952;2024-02-26T00:14:23;0.90;;;0.73;;
37151;SDS011;23046;50.112;8.952;2024-02-26T00:14:34;0.60;;;0.60;;
37151;SDS011;23046;50.112;8.952;2024-02-26T00:14:44;0.50;;;0.50;;
37151;SDS011;23046;50.112;8.952;2024-02-26T00:14:56;0.60;;;0.60;;
37151;SDS011;23046;50.112;8.952;2024-02-26T00:15:08;0.75;;;0.70;;
37151;SDS011;23046;50.112;8.952;2024-02-26T00:15:19;1.08;;;0.80;;
37151;SDS011;23046;50.112;8.952;2024-02-26T00:15:29;1.10;;;0.73;;
37151;SDS011;23046;50.112;8.952;2024-02-26T00:15:39;0.80;;;0.63;;
37151;SDS011;23046;50.112;8.952;2024-02-26T00:15:49;0.70;;;0.67;;
37151;SDS011;23046;50.112;8.952;2024-02-26T00:15:59;0.70;;;0.70;;
37151;SDS011;23046;50.112;8.952;2024-02-26T00:16:10;1.00;;;0.70;;
37151;SDS011;23046;50.112;8.952;2024-02-26T00:16:20;1.00;;;0.60;;
37151;SDS011;23046;50.112;8.952;2024-02-26T00:16:30;0.90;;;0.60;;
37151;SDS011;23046;50.112;8.952;2024-02-26T00:16:40;0.73;;;0.60;;
37151;SDS011;23046;50.112;8.952;2024-02-26T00:16:55;0.75;;;0.70;;
37151;SDS011;23046;50.112;8.952;2024-02-26T00:17:05;0.80;;;0.70;;
37151;SDS011;23046;50.112;8.952;2024-02-26T00:17:15;0.90;;;0.70;;
37151;SDS011;23046;50.112;8.952;2024-02-26T00:17:26;0.70;;;0.63;;
37151;SDS011;23046;50.112;8.952;2024-02-26T00:17:36;0.70;;;0.67;;
37151;SDS011;23046;50.112;8.952;2024-02-26T00:17:46;0.53;;;0.53;;
37151;SDS011;23046;50.112;8.952;2024-02-26T00:17:57;0.57;;;0.57;;
37151;SDS011;23046;50.112;8.952;2024-02-26T00:18:07;0.40;;;0.40;;
37151;SDS011;23046;50.112;8.952;2024-02-26T00:18:17;0.60;;;0.60;;
37151;SDS011;23046;50.112;8.952;2024-02-26T00:18:27;0.60;;;0.60;;
37151;SDS011;23046;50.112;8.952;2024-02-26T00:18:37;0.80;;;0.80;;
37151;SDS011;23046;50.112;8.952;2024-02-26T00:18:47;0.70;;;0.70;;
37151;SDS011;23046;50.112;8.952;2024-02-26T00:18:58;0.70;;;0.70;;
37151;SDS011;23046;50.112;8.952;2024-02-26T00:19:08;0.60;;;0.60;;
37151;SDS011;23046;50.112;8.952;2024-02-26T00:19:18;0.80;;;0.60;;
37151;SDS011;23046;50.112;8.952;2024-02-26T00:19:28;0.80;;;0.60;;
37151;SDS011;23046;50.112;8.952;2024-02-26T00:19:38;0.90;;;0.70;;
37151;SDS011;23046;50.112;8.952;2024-02-26T00:19:48;0.70;;;0.63;;
37151;SDS011;23046;50.112;8.952;2024-02-26T00:19:59;0.65;;;0.60;;
37151;SDS011;23046;50.112;8.952;2024-02-26T00:20:10;0.68;;;0.68;;
37151;SDS011;23046;50.112;8.952;2024-02-26T00:20:21;0.70;;;0.70;;
37151;SDS011;23046;50.112;8.952;2024-02-26T00:20:31;0.73;;;0.73;;
37151;SDS011;23046;50.112;8.952;2024-02-26T00:20:41;0.70;;;0.70;;
37151;SDS011;23046;50.112;8.952;2024-02-26T00:20:53;1.30;;;0.80;;
37151;SDS011;23046;50.112;8.952;2024-02-26T00:21:03;1.53;;;0.77;;
37151;SDS011;23046;50.112;8.952;2024-02-26T00:21:14;2.30;;;0.80;;
37151;SDS011;23046;50.112;8.952;2024-02-26T00:21:24;1.53;;;0.70;;
37151;SDS011;23046;50.112;8.952;2024-02-26T00:21:34;1.10;;;0.70;;
37151;SDS011;23046;50.112;8.952;2024-02-26T00:21:44;0.70;;;0.60;;
37151;SDS011;23046;50.112;8.952;2024-02-26T00:21:55;1.00;;;0.60;;
37151;SDS011;23046;50.112;8.952;2024-02-26T00:22:05;1.08;;;0.60;;
37151;SDS011;23046;50.112;8.952;2024-02-26T00:22:15;1.00;;;0.67;;
37151;SDS011;23046;50.112;8.952;2024-02-26T00:22:26;0.73;;;0.63;;
37151;SDS011;23046;50.112;8.952;2024-02-26T00:22:36;0.70;;;0.60;;
37151;SDS011;23046;50.112;8.952;2024-02-26T00:22:46;0.60;;;0.60;;
37151;SDS011;23046;50.112;8.952;2024-02-26T00:22:56;1.27;;;0.63;;
37151;SDS011;23046;50.112;8.952;2024-02-26T00:23:07;2.60;;;0.80;;
37151;SDS011;23046;50.112;8.952;2024-02-26T00:23:17;2.80;;;0.80;;
37151;SDS011;23046;50.112;8.952;2024-02-26T00:23:27;1.63;;;0.80;;
37151;SDS011;23046;50.112;8.952;2024-02-26T00:23:37;0.83;;;0.77;;
37151;SDS011;23046;50.112;8.952;2024-02-26T00:23:49;0.70;;;0.70;;
37151;SDS011;23046;50.112;8.952;2024-02-26T00:23:59;0.90;;;0.90;;
37151;SDS011;23046;50.112;8.952;2024-02-26T00:24:09;0.93;;;0.83;;
37151;SDS011;23046;50.112;8.952;2024-02-26T00:24:19;0.90;;;0.80;;
37151;SDS011;23046;50.112;8.952;2024-02-26T00:24:29;0.70;;;0.70;;
37151;SDS011;23046;50.112;8.952;2024-02-26T00:24:40;0.60;;;0.60;;
37151;SDS011;23046;50.112;8.952;2024-02-26T00:24:51;0.82;;;0.50;;
37151;SDS011;23046;50.112;8.952;2024-02-26T00:25:01;0.87;;;0.60;;
37151;SDS011;23046;50.112;8.952;2024-02-26T00:25:11;0.87;;;0.63;;
37151;SDS011;23046;50.112;8.952;2024-02-26T00:25:22;0.75;;;0.70;;
37151;SDS011;23046;50.112;8.952;2024-02-26T00:25:32;0.63;;;0.60;;
37151;SDS011;23046;50.112;8.952;2024-02-26T00:25:42;0.67;;;0.60;;
37151;SDS011;23046;50.112;8.952;2024-02-26T00:25:53;0.80;;;0.80;;
37151;SDS011;23046;50.112;8.952;2024-02-26T00:26:03;0.90;;;0.90;;
37151;SDS011;23046;50.112;8.952;2024-02-26T00:26:14;0.80;;;0.80;;
37151;SDS011;23046;50.112;8.952;2024-02-26T00:26:25;0.70;;;0.70;;
37151;SDS011;23046;50.112;8.952;2024-02-26T00:26:35;0.70;;;0.70;;
37151;SDS011;23046;50.112;8.952;2024-02-26T00:26:45;0.60;;;0.60;;
37151;SDS011;23046;50.112;8.952;2024-02-26T00:26:56;0.60;;;0.60;;
37151;SDS011;23046;50.112;8.952;2024-02-26T00:27:06;0.70;;;0.70;;
37151;SDS011;23046;50.112;8.952;2024-02-26T00:27:16;0.70;;;0.70;;
37151;SDS011;23046;50.112;8.952;2024-02-26T00:27:26;0.60;;;0.60;;
37151;SDS011;23046;50.112;8.952;2024-02-26T00:27:36;0.70;;;0.70;;
37151;SDS011;23046;50.112;8.952;2024-02-26T00:27:47;0.70;;;0.70;;
37151;SDS011;23046;50.112;8.952;2024-02-26T00:27:57;0.70;;;0.70;;
37151;SDS011;23046;50.112;8.952;2024-02-26T00:28:07;0.60;;;0.60;;
37151;SDS011;23046;50.112;8.952;2024-02-26T00:28:18;0.63;;;0.63;;
37151;SDS011;23046;50.112;8.952;2024-02-26T00:28:29;0.60;;;0.60;;
37151;SDS011;23046;50.112;8.952;2024-02-26T00:28:40;0.87;;;0.70;;
37151;SDS011;23046;50.112;8.952;2024-02-26T00:28:50;1.00;;;0.70;;
37151;SDS011;23046;50.112;8.952;2024-02-26T00:29:00;1.10;;;0.77;;
37151;SDS011;23046;50.112;8.952;2024-02-26T00:29:10;0.73;;;0.67;;
37151;SDS011;23046;50.112;8.952;2024-02-26T00:29:20;0.60;;;0.60;;
37151;SDS011;23046;50.112;8.952;2024-02-26T00:29:31;1.27;;;0.60;;
37151;SDS011;23046;50.112;8.952;2024-02-26T00:29:42;1.30;;;0.63;;
37151;SDS011;23046;50.112;8.952;2024-02-26T00:29:52;1.15;;;0.60;;
37151;SDS011;23046;50.112;8.952;2024-02-26T00:30:02;0.60;;;0.60;;
37151;SDS011;23046;50.112;8.952;2024-02-26T00:30:13;0.60;;;0.60;;
37151;SDS011;23046;50.112;8.952;2024-02-26T00:30:23;0.60;;;0.60;;
37151;SDS011;23046;50.112;8.952;2024-02-26T00:30:33;0.60;;;0.60;;
37151;SDS011;23046;50.112;8.952;2024-02-26T00:30:43;0.70;;;0.70;;
37151;SDS011;23046;50.112;8.952;2024-02-26T00:30:54;0.90;;;0.70;;
37151;SDS011;23046;50.112;8.952;2024-02-26T00:31:05;1.08;;;0.70;;
37151;SDS011;23046;50.112;8.952;2024-02-26T00:31:16;1.10;;;0.67;;
37151;SDS011;23046;50.112;8.952;2024-02-26T00:31:26;0.90;;;0.60;;
37151;SDS011;23046;50.112;8.952;2024-02-26T00:31:37;0.73;;;0.68;;
37151;SDS011;23046;50.112;8.952;2024-02-26T00:31:48;0.77;;;0.77;;
37151;SDS011;23046;50.112;8.952;2024-02-26T00:31:58;0.80;;;0.80;;
37151;SDS011;23046;50.112;8.952;2024-02-26T00:32:08;0.77;;;0.77;;
37151;SDS011;23046;50.112;8.952;2024-02-26T00:32:19;0.80;;;0.80;;
37151;SDS011;23046;50.112;8.952;2024-02-26T00:32:29;0.80;;;0.80;;
37151;SDS011;23046;50.112;8.952;2024-02-26T00:32:39;1.33;;;0.73;;
37151;SDS011;23046;50.112;8.952;2024-02-26T00:32:49;1.20;;;0.70;;
37151;SDS011;23046;50.112;8.952;2024-02-26T00:32:59;1.05;;;0.60;;
37151;SDS011;23046;50.112;8.952;2024-02-26T00:33:10;0.83;;;0.60;;
37151;SDS011;23046;50.112;8.952;2024-02-26T00:33:20;1.13;;;0.70;;
37151;SDS011;23046;50.112;8.952;2024-02-26T00:33:30;1.10;;;0.70;;
37151;SDS011;23046;50.112;8.952;2024-02-26T00:33:40;0.77;;;0.70;;
37151;SDS011;23046;50.112;8.952;2024-02-26T00:33:50;0.60;;;0.60;;
37151;SDS011;23046;50.112;8.952;2024-02-26T00:34:00;0.57;;;0.57;;
37151;SDS011;23046;50.112;8.952;2024-02-26T00:34:11;0.60;;;0.60;;
37151;SDS011;23046;50.112;8.952;2024-02-26T00:34:21;0.60;;;0.60;;
37151;SDS011;23046;50.112;8.952;2024-02-26T00:34:31;0.60;;;0.60;;
37151;SDS011;23046;50.112;8.952;2024-02-26T00:34:41;0.70;;;0.70;;
37151;SDS011;23046;50.112;8.952;2024-02-26T00:34:51;0.80;;;0.80;;
37151;SDS011;23046;50.112;8.952;2024-02-26T00:35:01;0.77;;;0.77;;
37151;SDS011;23046;50.112;8.952;2024-02-26T00:35:12;1.00;;;0.80;;
37151;SDS011;23046;50.112;8.952;2024-02-26T00:35:22;1.10;;;0.80;;
37151;SDS011;23046;50.112;8.952;2024-02-26T00:35:32;1.17;;;0.73;;
37151;SDS011;23046;50.112;8.952;2024-02-26T00:35:42;0.70;;;0.70;;
37151;SDS011;23046;50.112;8.952;2024-02-26T00:35:53;0.52;;;0.52;;
37151;SDS011;23046;50.112;8.952;2024-02-26T00:36:03;0.60;;;0.60;;
37151;SDS011;23046;50.112;8.952;2024-02-26T00:36:13;0.65;;;0.60;;
37151;SDS011;23046;50.112;8.952;2024-02-26T00:36:24;0.73;;;0.63;;
37151;SDS011;23046;50.112;8.952;2024-02-26T00:36:34;0.90;;;0.70;;
37151;SDS011;23046;50.112;8.952;2024-02-26T00:36:44;0.77;;;0.60;;
37151;SDS011;23046;50.112;8.952;2024-02-26T00:36:54;0.87;;;0.60;;
37151;SDS011;23046;50.112;8.952;2024-02-26T00:37:04;1.02;;;0.60;;
37151;SDS011;23046;50.112;8.952;2024-02-26T00:37:15;0.87;;;0.60;;
37151;SDS011;23046;50.112;8.952;2024-02-26T00:37:25;0.90;;;0.70;;
37151;SDS011;23046;50.112;8.952;2024-02-26T00:37:35;0.70;;;0.70;;
37151;SDS011;23046;50.112;8.952;2024-02-26T00:37:45;0.70;;;0.70;;
37151;SDS011;23046;50.112;8.952;2024-02-26T00:37:56;0.70;;;0.60;;
37151;SDS011;23046;50.112;8.952;2024-02-26T00:38:06;0.70;;;0.70;;
37151;SDS011;23046;50.112;8.952;2024-02-26T00:38:16;0.73;;;0.70;;
37151;SDS011;23046;50.112;8.952;2024-02-26T00:38:26;0.70;;;0.70;;
37151;SDS011;23046;50.112;8.952;2024-02-26T00:38:37;0.60;;;0.60;;
37151;SDS011;23046;50.112;8.952;2024-02-26T00:38:47;0.60;;;0.60;;
37151;SDS011;23046;50.112;8.952;2024-02-26T00:39:00;0.68;;;0.68;;
37151;SDS011;23046;50.112;8.952;2024-02-26T00:39:11;0.70;;;0.70;;
37151;SDS011;23046;50.112;8.952;2024-02-26T00:39:21;0.80;;;0.80;;
37151;SDS011;23046;50.112;8.952;2024-02-26T00:39:31;0.80;;;0.80;;
37151;SDS011;23046;50.112;8.952;2024-02-26T00:39:41;0.80;;;0.80;;
37151;SDS011;23046;50.112;8.952;2024-02-26T00:39:51;0.70;;;0.70;;
37151;SDS011;23046;50.112;8.952;2024-02-26T00:40:03;0.63;;;0.57;;
37151;SDS011;23046;50.112;8.952;2024-02-26T00:40:13;0.60;;;0.50;;
37151;SDS011;23046;50.112;8.952;2024-02-26T00:40:23;0.57;;;0.57;;
37151;SDS011;23046;50.112;8.952;2024-02-26T00:40:34;0.70;;;0.70;;
37151;SDS011;23046;50.112;8.952;2024-02-26T00:40:44;0.80;;;0.70;;
37151;SDS011;23046;50.112;8.952;2024-02-26T00:40:54;0.80;;;0.70;;
37151;SDS011;23046;50.112;8.952;2024-02-26T00:41:04;0.90;;;0.70;;
37151;SDS011;23046;50.112;8.952;2024-02-26T00:41:15;1.27;;;0.73;;
37151;SDS011;23046;50.112;8.952;2024-02-26T00:41:25;1.50;;;0.90;;
37151;SDS011;23046;50.112;8.952;2024-02-26T00:41:38;1.43;;;0.90;;
37151;SDS011;23046;50.112;8.952;2024-02-26T00:41:49;0.88;;;0.85;;
37151;SDS011;23046;50.112;8.952;2024-02-26T00:42:01;0.73;;;0.70;;
37151;SDS011;23046;50.112;8.952;2024-02-26T00:42:11;0.60;;;0.60;;
37151;SDS011;23046;50.112;8.952;2024-02-26T00:42:22;0.70;;;0.50;;
37151;SDS011;23046;50.112;8.952;2024-02-26T00:42:32;1.05;;;0.60;;
37151;SDS011;23046;50.112;8.952;2024-02-26T00:42:42;1.23;;;0.60;;
37151;SDS011;23046;50.112;8.952;2024-02-26T00:42:55;1.00;;;0.70;;
37151;SDS011;23046;50.112;8.952;2024-02-26T00:43:06;0.70;;;0.70;;
37151;SDS011;23046;50.112;8.952;2024-02-26T00:43:16;0.68;;;0.68;;
37151;SDS011;23046;50.112;8.952;2024-02-26T00:43:26;0.70;;;0.70;;
37151;SDS011;23046;50.112;8.952;2024-02-26T00:43:36;0.60;;;0.60;;
37151;SDS011;23046;50.112;8.952;2024-02-26T00:43:49;0.60;;;0.60;;
37151;SDS011;23046;50.112;8.952;2024-02-26T00:43:59;0.50;;;0.50;;
37151;SDS011;23046;50.112;8.952;2024-02-26T00:44:10;0.65;;;0.65;;
37151;SDS011;23046;50.112;8.952;2024-02-26T00:44:20;0.67;;;0.67;;
37151;SDS011;23046;50.112;8.952;2024-02-26T00:44:30;0.70;;;0.70;;
37151;SDS011;23046;50.112;8.952;2024-02-26T00:44:40;0.80;;;0.70;;
37151;SDS011;23046;50.112;8.952;2024-02-26T00:44:51;0.70;;;0.70;;
37151;SDS011;23046;50.112;8.952;2024-02-26T00:45:01;0.70;;;0.60;;
37151;SDS011;23046;50.112;8.952;2024-02-26T00:45:11;0.60;;;0.60;;
37151;SDS011;23046;50.112;8.952;2024-02-26T00:45:22;0.65;;;0.65;;
37151;SDS011;23046;50.112;8.952;2024-02-26T00:45:32;0.70;;;0.70;;
37151;SDS011;23046;50.112;8.952;2024-02-26T00:45:42;0.60;;;0.60;;
37151;SDS011;23046;50.112;8.952;2024-02-26T00:45:52;0.50;;;0.50;;
37151;SDS011;23046;50.112;8.952;2024-02-26T00:46:03;0.50;;;0.50;;
37151;SDS011;23046;50.112;8.952;2024-02-26T00:46:13;0.80;;;0.60;;
37151;SDS011;23046;50.112;8.952;2024-02-26T00:46:23;0.80;;;0.70;;
37151;SDS011;23046;50.112;8.952;2024-02-26T00:46:33;0.70;;;0.60;;
37151;SDS011;23046;50.112;8.952;2024-02-26T00:46:44;0.60;;;0.60;;
37151;SDS011;23046;50.112;8.952;2024-02-26T00:46:54;0.80;;;0.80;;
37151;SDS011;23046;50.112;8.952;2024-02-26T00:47:04;0.80;;;0.77;;
37151;SDS011;23046;50.112;8.952;2024-02-26T00:47:14;0.77;;;0.63;;
37151;SDS011;23046;50.112;8.952;2024-02-26T00:47:24;0.87;;;0.60;;
37151;SDS011;23046;50.112;8.952;2024-02-26T00:47:35;0.97;;;0.70;;
37151;SDS011;23046;50.112;8.952;2024-02-26T00:47:45;0.93;;;0.77;;
37151;SDS011;23046;50.112;8.952;2024-02-26T00:47:57;0.70;;;0.70;;
37151;SDS011;23046;50.112;8.952;2024-02-26T00:48:07;0.77;;;0.70;;
37151;SDS011;23046;50.112;8.952;2024-02-26T00:48:18;0.70;;;0.67;;
37151;SDS011;23046;50.112;8.952;2024-02-26T00:48:28;0.80;;;0.70;;
37151;SDS011;23046;50.112;8.952;2024-02-26T00:48:38;0.73;;;0.60;;
37151;SDS011;23046;50.112;8.952;2024-02-26T00:48:48;0.77;;;0.70;;
37151;SDS011;23046;50.112;8.952;2024-02-26T00:48:58;0.80;;;0.80;;
37151;SDS011;23046;50.112;8.952;2024-02-26T00:49:09;0.70;;;0.70;;
37151;SDS011;23046;50.112;8.952;2024-02-26T00:49:19;0.80;;;0.80;;
37151;SDS011;23046;50.112;8.952;2024-02-26T00:49:29;0.70;;;0.70;;
37151;SDS011;23046;50.112;8.952;2024-02-26T00:49:39;0.73;;;0.73;;
37151;SDS011;23046;50.112;8.952;2024-02-26T00:49:49;0.70;;;0.70;;
37151;SDS011;23046;50.112;8.952;2024-02-26T00:49:59;0.70;;;0.70;;
37151;SDS011;23046;50.112;8.952;2024-02-26T00:50:10;0.87;;;0.73;;
37151;SDS011;23046;50.112;8.952;2024-02-26T00:50:20;0.80;;;0.70;;
37151;SDS011;23046;50.112;8.952;2024-02-26T00:50:30;0.97;;;0.70;;
37151;SDS011;23046;50.112;8.952;2024-02-26T00:50:41;0.68;;;0.68;;
37151;SDS011;23046;50.112;8.952;2024-02-26T00:50:51;0.60;;;0.60;;
37151;SDS011;23046;50.112;8.952;2024-02-26T00:51:01;0.50;;;0.50;;
37151;SDS011;23046;50.112;8.952;2024-02-26T00:51:11;0.50;;;0.50;;
37151;SDS011;23046;50.112;8.952;2024-02-26T00:51:22;0.70;;;0.70;;
37151;SDS011;23046;50.112;8.952;2024-02-26T00:51:32;0.80;;;0.70;;
37151;SDS011;23046;50.112;8.952;2024-02-26T00:51:42;0.70;;;0.70;;
37151;SDS011;23046;50.112;8.952;2024-02-26T00:51:52;0.70;;;0.70;;
37151;SDS011;23046;50.112;8.952;2024-02-26T00:52:02;0.70;;;0.70;;
37151;SDS011;23046;50.112;8.952;2024-02-26T00:52:13;0.70;;;0.70;;
37151;SDS011;23046;50.112;8.952;2024-02-26T00:52:23;0.63;;;0.60;;
37151;SDS011;23046;50.112;8.952;2024-02-26T00:52:34;0.90;;;0.52;;
37151;SDS011;23046;50.112;8.952;2024-02-26T00:52:44;0.90;;;0.50;;
37151;SDS011;23046;50.112;8.952;2024-02-26T00:52:54;0.77;;;0.60;;
37151;SDS011;23046;50.112;8.952;2024-02-26T00:53:04;0.65;;;0.63;;
37151;SDS011;23046;50.112;8.952;2024-02-26T00:53:14;0.70;;;0.70;;
37151;SDS011;23046;50.112;8.952;2024-02-26T00:53:25;1.07;;;0.73;;
37151;SDS011;23046;50.112;8.952;2024-02-26T00:53:35;1.17;;;0.80;;
37151;SDS011;23046;50.112;8.952;2024-02-26T00:53:45;1.23;;;0.83;;
37151;SDS011;23046;50.112;8.952;2024-02-26T00:53:55;0.90;;;0.85;;
37151;SDS011;23046;50.112;8.952;2024-02-26T00:54:05;0.80;;;0.80;;
37151;SDS011;23046;50.112;8.952;2024-02-26T00:54:16;0.67;;;0.67;;
37151;SDS011;23046;50.112;8.952;2024-02-26T00:54:26;0.60;;;0.60;;
37151;SDS011;23046;50.112;8.952;2024-02-26T00:54:36;0.83;;;0.70;;
37151;SDS011;23046;50.112;8.952;2024-02-26T00:54:46;0.90;;;0.70;;
37151;SDS011;23046;50.112;8.952;2024-02-26T00:54:59;0.68;;;0.55;;
37151;SDS011;23046;50.112;8.952;2024-02-26T00:55:09;0.50;;;0.50;;
37151;SDS011;23046;50.112;8.952;2024-02-26T00:55:19;0.70;;;0.70;;
37151;SDS011;23046;50.112;8.952;2024-02-26T00:55:30;0.73;;;0.70;;
37151;SDS011;23046;50.112;8.952;2024-02-26T00:55:40;0.80;;;0.77;;
37151;SDS011;23046;50.112;8.952;2024-02-26T00:55:50;1.00;;;0.80;;
37151;SDS011;23046;50.112;8.952;2024-02-26T00:56:01;0.85;;;0.80;;
37151;SDS011;23046;50.112;8.952;2024-02-26T00:56:11;0.80;;;0.80;;
37151;SDS011;23046;50.112;8.952;2024-02-26T00:56:21;0.80;;;0.80;;
37151;SDS011;23046;50.112;8.952;2024-02-26T00:56:32;1.00;;;0.80;;
37151;SDS011;23046;50.112;8.952;2024-02-26T00:56:42;1.00;;;0.80;;
37151;SDS011;23046;50.112;8.952;2024-02-26T00:56:52;1.00;;;0.80;;
37151;SDS011;23046;50.112;8.952;2024-02-26T00:57:02;0.73;;;0.73;;
37151;SDS011;23046;50.112;8.952;2024-02-26T00:57:13;1.10;;;0.65;;
37151;SDS011;23046;50.112;8.952;2024-02-26T00:57:23;1.13;;;0.60;;
37151;SDS011;23046;50.112;8.952;2024-02-26T00:57:33;1.20;;;0.63;;
37151;SDS011;23046;50.112;8.952;2024-02-26T00:57:43;0.70;;;0.63;;
37151;SDS011;23046;50.112;8.952;2024-02-26T00:57:54;0.80;;;0.70;;
37151;SDS011;23046;50.112;8.952;2024-02-26T00:58:04;0.70;;;0.70;;
37151;SDS011;23046;50.112;8.952;2024-02-26T00:58:14;1.00;;;0.80;;
37151;SDS011;23046;50.112;8.952;2024-02-26T00:58:25;0.80;;;0.80;;
37151;SDS011;23046;50.112;8.952;2024-02-26T00:58:35;1.02;;;0.85;;
37151;SDS011;23046;50.112;8.952;2024-02-26T00:58:45;0.70;;;0.70;;
37151;SDS011;23046;50.112;8.952;2024-02-26T00:58:55;0.80;;;0.63;;
37151;SDS011;23046;50.112;8.952;2024-02-26T00:59:05;0.67;;;0.60;;
37151;SDS011;23046;50.112;8.952;2024-02-26T00:59:16;0.70;;;0.70;;
37151;SDS011;23046;50.112;8.952;2024-02-26T00:59:26;0.60;;;0.60;;
37151;SDS011;23046;50.112;8.952;2024-02-26T00:59:36;0.50;;;0.50;;
37151;SDS011;23046;50.112;8.952;2024-02-26T00:59:46;0.50;;;0.50;;
37151;SDS011;23046;50.112;8.952;2024-02-26T00:59:56;0.63;;;0.63;;
37151;SDS011;23046;50.112;8.952;2024-02-26T01:00:07;1.00;;;0.80;;
37151;SDS011;23046;50.112;8.952;2024-02-26T01:00:18;0.85;;;0.80;;
37151;SDS011;23046;50.112;8.952;2024-02-26T01:00:29;0.82;;;0.77;;
37151;SDS011;23046;50.112;8.952;2024-02-26T01:00:39;0.70;;;0.70;;
37151;SDS011;23046;50.112;8.952;2024-02-26T01:00:49;0.60;;;0.60;;
37151;SDS011;23046;50.112;8.952;2024-02-26T01:00:59;0.50;;;0.50;;
37151;SDS011;23046;50.112;8.952;2024-02-26T01:01:09;0.67;;;0.60;;
37151;SDS011;23046;50.112;8.952;2024-02-26T01:01:19;0.87;;;0.67;;
37151;SDS011;23046;50.112;8.952;2024-02-26T01:01:30;0.90;;;0.70;;
37151;SDS011;23046;50.112;8.952;2024-02-26T01:01:40;0.67;;;0.63;;
37151;SDS011;23046;50.112;8.952;2024-02-26T01:01:50;0.73;;;0.63;;
37151;SDS011;23046;50.112;8.952;2024-02-26T01:02:00;0.70;;;0.60;;
37151;SDS011;23046;50.112;8.952;2024-02-26T01:02:12;0.57;;;0.50;;
37151;SDS011;23046;50.112;8.952;2024-02-26T01:02:22;0.50;;;0.50;;
37151;SDS011;23046;50.112;8.952;2024-02-26T01:02:32;0.77;;;0.60;;
37151;SDS011;23046;50.112;8.952;2024-02-26T01:02:42;0.87;;;0.60;;